createdAt,value
2023-04-03T00:02:00.005Z,70.50
2023-04-03T00:04:29.976Z,71.00
2023-04-03T00:06:59.685Z,71.20
2023-04-03T00:09:29.503Z,71.40
2023-04-03T00:11:59.107Z,71.50
2023-04-03T00:14:30.208Z,71.40
2023-04-03T00:17:00.039Z,71.70
2023-04-03T00:19:29.705Z,71.60
2023-04-03T00:21:59.374Z,71.70
2023-04-03T00:24:29.122Z,71.70
2023-04-03T00:26:58.686Z,71.40
2023-04-03T00:29:28.188Z,71.30
2023-04-03T00:31:57.827Z,71.20
2023-04-03T00:34:27.462Z,70.90
2023-04-03T00:36:57.884Z,70.80
2023-04-03T00:39:28.203Z,70.50
2023-04-03T00:41:58.005Z,70.10
2023-04-03T00:45:06.745Z,70.00
2023-04-03T00:47:36.429Z,69.70
2023-04-03T00:50:06.990Z,69.50
2023-04-03T00:52:36.775Z,69.30
2023-04-03T00:55:10.702Z,69.30
2023-04-03T00:57:41.627Z,69.10
2023-04-03T01:00:15.474Z,69.00
2023-04-03T01:02:45.435Z,68.80
2023-04-03T01:05:17.039Z,68.80
2023-04-03T01:07:48.219Z,68.70
2023-04-03T01:10:20.762Z,68.70
2023-04-03T01:12:53.253Z,68.60
2023-04-03T01:15:26.557Z,68.40
2023-04-03T01:17:59.243Z,68.20
2023-04-03T01:20:56.728Z,68.10
2023-04-03T01:23:53.666Z,67.80
2023-04-03T01:26:23.892Z,67.60
2023-04-03T01:28:53.558Z,67.30
2023-04-03T01:31:48.593Z,67.30
2023-04-03T01:34:18.413Z,67.20
2023-04-03T01:36:48.191Z,67.00
2023-04-03T01:39:18.498Z,66.80
2023-04-03T01:41:48.350Z,66.60
2023-04-03T01:44:18.304Z,66.50
2023-04-03T01:46:47.949Z,66.40
2023-04-03T01:49:17.686Z,66.10
2023-04-03T01:51:47.412Z,66.10
2023-04-03T01:54:17.199Z,66.00
2023-04-03T01:56:46.973Z,65.80
2023-04-03T01:59:19.606Z,65.60
2023-04-03T02:01:49.393Z,66.00
2023-04-03T02:04:19.264Z,65.20
2023-04-03T02:06:48.952Z,65.00
2023-04-03T02:09:18.555Z,65.10
2023-04-03T02:11:48.267Z,64.90
2023-04-03T02:14:18.035Z,64.80
2023-04-03T02:16:47.965Z,64.70
2023-04-03T02:19:17.706Z,64.50
2023-04-03T02:21:47.837Z,64.20
2023-04-03T02:24:17.736Z,64.00
2023-04-03T02:26:47.491Z,63.70
2023-04-03T02:29:17.367Z,63.50
2023-04-03T02:31:47.252Z,62.80
2023-04-03T02:34:16.913Z,62.40
2023-04-03T02:36:46.975Z,62.30
2023-04-03T02:39:16.686Z,62.20
2023-04-03T02:41:46.811Z,62.00
2023-04-03T02:44:17.293Z,61.50
2023-04-03T02:46:46.932Z,61.10
2023-04-03T02:49:16.604Z,60.30
2023-04-03T02:51:46.313Z,60.10
2023-04-03T02:54:16.217Z,60.30
2023-04-03T02:56:45.922Z,60.30
2023-04-03T02:59:15.591Z,60.30
2023-04-03T03:01:45.284Z,60.10
2023-04-03T03:04:15.330Z,58.50
2023-04-03T03:06:45.166Z,58.90
2023-04-03T03:09:15.768Z,58.90
2023-04-03T03:11:45.441Z,58.80
2023-04-03T03:14:15.187Z,58.90
2023-04-03T03:16:44.831Z,58.90
2023-04-03T03:19:14.676Z,58.80
2023-04-03T03:21:44.406Z,58.40
2023-04-03T03:24:14.785Z,58.50
2023-04-03T03:26:44.686Z,58.40
2023-04-03T03:29:14.380Z,58.00
2023-04-03T03:31:44.036Z,57.30
2023-04-03T03:34:14.560Z,57.70
2023-04-03T03:36:44.157Z,57.60
2023-04-03T03:39:13.990Z,56.90
2023-04-03T03:41:43.736Z,56.50
2023-04-03T03:44:14.896Z,55.50
2023-04-03T03:46:45.290Z,55.50
2023-04-03T03:49:15.241Z,55.60
2023-04-03T03:51:44.969Z,55.60
2023-04-03T03:54:14.727Z,55.30
2023-04-03T03:56:44.330Z,55.20
2023-04-03T03:59:15.567Z,55.20
2023-04-03T04:01:45.396Z,54.80
2023-04-03T04:04:15.129Z,54.70
2023-04-03T04:06:44.931Z,54.60
2023-04-03T04:09:14.628Z,54.40
2023-04-03T04:11:44.259Z,54.30
2023-04-03T04:14:16.030Z,54.10
2023-04-03T04:16:45.777Z,54.10
2023-04-03T04:19:15.565Z,53.90
2023-04-03T04:21:45.357Z,53.60
2023-04-03T04:24:15.010Z,53.20
2023-04-03T04:26:44.657Z,53.30
2023-04-03T04:29:14.405Z,52.60
2023-04-03T04:31:44.044Z,52.40
2023-04-03T04:34:15.479Z,52.20
2023-04-03T04:36:45.603Z,52.00
2023-04-03T04:39:15.258Z,52.00
2023-04-03T04:41:44.939Z,50.70
2023-04-03T04:44:14.725Z,50.10
2023-04-03T04:46:44.303Z,50.00
2023-04-03T04:49:14.182Z,49.90
2023-04-03T04:51:51.525Z,49.90
2023-04-03T04:54:21.906Z,50.20
2023-04-03T04:56:51.703Z,49.70
2023-04-03T04:59:22.036Z,50.00
2023-04-03T05:01:51.966Z,49.90
2023-04-03T05:04:21.880Z,48.20
2023-04-03T05:06:51.727Z,47.60
2023-04-03T05:09:22.722Z,47.60
2023-04-03T05:11:52.579Z,47.80
2023-04-03T05:14:22.181Z,47.00
2023-04-03T05:16:55.487Z,46.90
2023-04-03T05:19:25.198Z,46.60
2023-04-03T05:21:55.132Z,47.30
2023-04-03T05:24:24.988Z,47.40
2023-04-03T05:26:54.704Z,47.60
2023-04-03T05:29:25.226Z,47.50
2023-04-03T05:31:55.195Z,47.70
2023-04-03T05:34:25.078Z,46.50
2023-04-03T05:36:54.872Z,45.60
2023-04-03T05:39:25.676Z,46.00
2023-04-03T05:41:55.317Z,46.30
2023-04-03T05:44:24.938Z,45.20
2023-04-03T05:46:54.674Z,45.60
2023-04-03T05:49:47.318Z,45.90
2023-04-03T05:52:32.123Z,45.40
2023-04-03T05:55:01.872Z,45.60
2023-04-03T05:57:31.706Z,45.90
2023-04-03T06:00:01.534Z,46.10
2023-04-03T06:02:31.429Z,46.40
2023-04-03T06:05:01.008Z,46.30
2023-04-03T06:07:31.201Z,46.50
2023-04-03T06:10:01.104Z,45.60
2023-04-03T06:12:32.525Z,44.70
2023-04-03T06:15:02.391Z,45.20
2023-04-03T06:17:48.618Z,45.30
2023-04-03T06:20:18.750Z,45.50
2023-04-03T06:22:48.659Z,45.30
2023-04-03T06:25:20.549Z,45.30
2023-04-03T06:27:50.428Z,45.40
2023-04-03T06:30:20.277Z,45.70
2023-04-03T06:32:50.019Z,46.20
2023-04-03T06:35:19.951Z,46.00
2023-04-03T06:37:49.798Z,46.20
2023-04-03T06:40:24.976Z,46.80
2023-04-03T06:42:54.637Z,46.60
2023-04-03T06:45:25.280Z,46.20
2023-04-03T06:47:54.992Z,46.20
2023-04-03T06:50:24.847Z,46.50
2023-04-03T06:52:54.499Z,47.50
2023-04-03T06:55:24.354Z,48.00
2023-04-03T06:57:54.630Z,48.20
2023-04-03T07:00:24.609Z,47.80
2023-04-03T07:02:54.583Z,46.40
2023-04-03T07:05:24.238Z,46.60
2023-04-03T07:07:54.324Z,46.40
2023-04-03T07:10:24.125Z,46.00
2023-04-03T07:12:53.741Z,45.70
2023-04-03T07:15:23.446Z,46.70
2023-04-03T07:17:53.099Z,46.90
2023-04-03T07:20:23.084Z,47.10
2023-04-03T07:22:53.264Z,47.60
2023-04-03T07:25:23.155Z,48.90
2023-04-03T07:27:52.928Z,47.60
2023-04-03T07:30:22.684Z,48.10
2023-04-03T07:32:52.910Z,48.70
2023-04-03T07:35:22.687Z,49.10
2023-04-03T07:37:52.913Z,48.80
2023-04-03T07:40:22.991Z,48.50
2023-04-03T07:42:52.875Z,48.80
2023-04-03T07:45:22.598Z,48.30
2023-04-03T07:47:53.179Z,46.70
2023-04-03T07:50:23.009Z,45.00
2023-04-03T07:52:53.613Z,43.60
2023-04-03T07:55:23.416Z,42.50
2023-04-03T07:57:53.323Z,41.90
2023-04-03T08:03:11.361Z,41.00
2023-04-03T08:05:44.104Z,41.50
2023-04-03T08:08:16.105Z,40.30
2023-04-03T08:10:46.230Z,40.90
2023-04-03T08:13:15.790Z,40.80
2023-04-03T08:15:46.291Z,41.10
2023-04-03T08:18:17.542Z,41.70
2023-04-03T08:20:47.581Z,41.80
2023-04-03T08:23:19.875Z,41.60
2023-04-03T08:25:49.771Z,42.30
2023-04-03T08:28:19.417Z,43.40
2023-04-03T08:30:49.161Z,44.20
2023-04-03T08:33:19.085Z,44.60
2023-04-03T08:35:48.764Z,45.00
2023-04-03T08:38:18.287Z,45.10
2023-04-03T08:40:48.020Z,45.10
2023-04-03T08:43:55.720Z,45.10
2023-04-03T08:46:29.559Z,45.00
2023-04-03T08:49:02.441Z,44.80
2023-04-03T08:51:33.171Z,44.70
2023-04-03T08:54:08.266Z,44.40
2023-04-03T08:56:39.147Z,44.40
2023-04-03T08:59:15.854Z,44.40
2023-04-03T09:01:46.263Z,44.40
2023-04-03T09:04:21.026Z,44.10
2023-04-03T09:06:58.816Z,43.70
2023-04-03T09:09:37.283Z,43.40
2023-04-03T09:12:40.945Z,42.00
2023-04-03T09:15:31.410Z,42.50
2023-04-03T09:18:20.042Z,42.90
2023-04-03T09:21:13.278Z,43.50
2023-04-03T09:24:04.338Z,42.90
2023-04-03T09:27:02.421Z,40.90
2023-04-03T09:29:32.701Z,41.50
2023-04-03T09:32:19.077Z,41.60
2023-04-03T09:34:50.623Z,41.70
2023-04-03T09:37:44.342Z,41.90
2023-04-03T09:40:37.669Z,42.10
2023-04-03T09:43:31.761Z,42.60
2023-04-03T09:46:42.178Z,42.70
2023-04-03T09:49:15.449Z,42.70
2023-04-03T09:51:46.431Z,43.10
2023-04-03T09:54:35.861Z,43.60
2023-04-03T09:57:15.728Z,44.30
2023-04-03T09:59:50.744Z,44.80
2023-04-03T10:02:41.865Z,45.10
2023-04-03T10:05:41.763Z,45.40
2023-04-03T10:08:32.779Z,45.60
2023-04-03T10:11:22.002Z,45.80
2023-04-03T10:13:57.844Z,46.10
2023-04-03T10:16:51.775Z,46.20
2023-04-03T10:19:45.242Z,46.50
2023-04-03T10:22:48.333Z,46.80
2023-04-03T10:25:46.678Z,47.30
2023-04-03T10:28:55.445Z,47.50
2023-04-03T10:32:04.333Z,47.80
2023-04-03T10:34:42.302Z,48.00
2023-04-03T10:37:52.208Z,48.10
2023-04-03T10:41:00.930Z,48.30
2023-04-03T10:43:46.018Z,48.60
2023-04-03T10:46:31.332Z,48.80
2023-04-03T10:49:28.097Z,48.90
2023-04-03T10:52:23.500Z,49.40
2023-04-03T10:55:25.394Z,49.60
2023-04-03T10:57:59.827Z,49.50
2023-04-03T11:00:51.412Z,49.70
2023-04-03T11:03:43.711Z,49.90
2023-04-03T11:06:17.451Z,50.00
2023-04-03T11:09:27.000Z,50.10
2023-04-03T11:12:15.903Z,50.20
2023-04-03T11:14:45.827Z,50.40
2023-04-03T11:17:49.179Z,50.40
2023-04-03T11:20:30.110Z,50.80
2023-04-03T11:23:25.493Z,50.70
2023-04-03T11:26:00.024Z,50.70
2023-04-03T11:28:29.671Z,50.90
2023-04-03T11:31:38.394Z,50.90
2023-04-03T11:34:47.427Z,51.10
2023-04-03T11:37:38.306Z,51.10
2023-04-03T11:40:21.377Z,51.80
2023-04-03T11:42:54.996Z,51.40
2023-04-03T11:45:57.650Z,51.50
2023-04-03T11:48:48.861Z,51.70
2023-04-03T11:51:42.071Z,51.80
2023-04-03T11:54:47.332Z,52.10
2023-04-03T11:57:48.675Z,52.30
2023-04-03T12:00:54.308Z,52.30
2023-04-03T12:03:55.195Z,52.60
2023-04-03T12:06:46.030Z,52.60
2023-04-03T12:09:31.971Z,53.30
2023-04-03T12:12:04.509Z,52.90
2023-04-03T12:14:34.275Z,52.90
2023-04-03T12:17:04.292Z,53.00
2023-04-03T12:22:17.201Z,53.20
2023-04-03T12:24:51.245Z,53.20
2023-04-03T12:27:45.454Z,53.20
2023-04-03T12:30:34.658Z,53.40
2023-04-03T12:33:33.505Z,53.50
2023-04-03T12:36:29.602Z,53.80
2023-04-03T12:39:13.745Z,54.00
2023-04-03T12:42:02.250Z,54.00
2023-04-03T12:45:07.404Z,54.10
2023-04-03T12:47:40.780Z,54.40
2023-04-03T12:50:30.303Z,54.40
2023-04-03T12:53:06.975Z,55.20
2023-04-03T12:55:37.740Z,55.30
2023-04-03T12:58:29.294Z,55.30
2023-04-03T13:01:15.116Z,55.60
2023-04-03T13:03:50.228Z,55.80
2023-04-03T13:06:44.654Z,55.90
2023-04-03T13:09:35.230Z,56.30
2023-04-03T13:12:15.980Z,56.20
2023-04-03T13:15:00.534Z,56.10
2023-04-03T13:17:30.630Z,56.20
2023-04-03T13:20:32.522Z,56.10
2023-04-03T13:23:11.381Z,56.30
2023-04-03T13:25:46.751Z,56.40
2023-04-03T13:28:22.674Z,56.50
2023-04-03T13:31:05.735Z,56.60
2023-04-03T13:33:40.485Z,56.60
2023-04-03T13:36:33.721Z,56.70
2023-04-03T13:39:27.749Z,56.80
2023-04-03T13:42:17.328Z,57.20
2023-04-03T13:44:47.124Z,57.20
2023-04-03T13:47:25.448Z,57.40
2023-04-03T13:50:18.224Z,57.30
2023-04-03T13:53:12.085Z,57.70
2023-04-03T13:56:00.386Z,57.80
2023-04-03T13:58:33.731Z,57.90
2023-04-03T14:01:24.512Z,57.90
2023-04-03T14:04:03.648Z,58.20
2023-04-03T14:06:33.349Z,58.30
2023-04-03T14:09:03.065Z,58.30
2023-04-03T14:11:35.158Z,58.40
2023-04-03T14:14:12.708Z,58.40
2023-04-03T14:16:45.528Z,58.80
2023-04-03T14:19:23.497Z,59.00
2023-04-03T14:21:54.036Z,59.20
2023-04-03T14:24:24.687Z,59.60
2023-04-03T14:26:57.162Z,59.70
2023-04-03T14:29:27.414Z,60.40
2023-04-03T14:32:11.407Z,60.80
2023-04-03T14:34:45.489Z,61.40
2023-04-03T14:37:23.911Z,62.10
2023-04-03T14:39:56.098Z,62.50
2023-04-03T14:42:33.519Z,62.50
2023-04-03T14:45:05.174Z,63.20
2023-04-03T14:47:35.421Z,63.20
2023-04-03T14:50:07.654Z,63.30
2023-04-03T14:52:41.109Z,63.70
2023-04-03T14:55:11.643Z,64.30
2023-04-03T14:57:43.143Z,64.90
2023-04-03T15:00:22.256Z,65.10
2023-04-03T15:02:52.771Z,64.80
2023-04-03T15:05:22.740Z,64.70
2023-04-03T15:07:58.071Z,65.30
2023-04-03T15:10:30.694Z,65.60
2023-04-03T15:13:00.618Z,65.20
2023-04-03T15:15:33.004Z,65.10
2023-04-03T15:18:02.990Z,65.30
2023-04-03T15:20:33.658Z,65.30
2023-04-03T15:23:04.188Z,65.50
2023-04-03T15:25:34.571Z,65.30
2023-04-03T15:28:04.393Z,65.60
2023-04-03T15:30:34.263Z,65.80
2023-04-03T15:33:04.088Z,65.90
2023-04-03T15:35:33.736Z,66.30
2023-04-03T15:38:03.448Z,66.60
2023-04-03T15:40:33.202Z,66.80
2023-04-03T15:43:02.877Z,67.00
2023-04-03T15:45:33.945Z,67.00
2023-04-03T15:48:04.387Z,67.10
2023-04-03T15:50:35.621Z,67.20
2023-04-03T15:53:05.607Z,67.30
2023-04-03T15:55:38.192Z,66.90
2023-04-03T15:58:08.969Z,66.40
2023-04-03T16:00:39.980Z,66.00
2023-04-03T16:03:15.696Z,66.00
2023-04-03T16:10:26.057Z,65.40
2023-04-03T16:12:55.829Z,66.10
2023-04-03T16:15:27.042Z,66.10
2023-04-03T16:17:57.609Z,66.00
2023-04-03T16:20:27.463Z,66.30
2023-04-03T16:22:59.489Z,66.60
2023-04-03T16:25:29.628Z,66.50
2023-04-03T16:27:59.216Z,66.60
2023-04-03T16:30:29.415Z,66.70
2023-04-03T16:33:00.263Z,66.90
2023-04-03T16:35:30.040Z,66.80
2023-04-03T16:37:59.642Z,66.90
2023-04-03T16:40:29.411Z,66.10
2023-04-03T16:42:58.947Z,65.70
2023-04-03T16:45:28.670Z,65.70
2023-04-03T16:47:58.428Z,65.30
2023-04-03T16:50:28.018Z,65.30
2023-04-03T16:52:57.732Z,65.60
2023-04-03T16:55:27.484Z,65.60
2023-04-03T16:57:57.968Z,65.50
2023-04-03T17:00:28.379Z,65.20
2023-04-03T17:02:58.236Z,65.20
2023-04-03T17:05:27.983Z,64.90
2023-04-03T17:07:57.786Z,64.90
2023-04-03T17:10:28.009Z,64.50
2023-04-03T17:12:57.838Z,64.70
2023-04-03T17:15:28.607Z,65.10
2023-04-03T17:17:58.327Z,65.30
2023-04-03T17:20:28.367Z,65.30
2023-04-03T17:22:58.155Z,65.50
2023-04-03T17:25:27.819Z,64.90
2023-04-03T17:27:57.557Z,65.00
2023-04-03T17:30:27.362Z,65.40
2023-04-03T17:32:57.086Z,65.70
2023-04-03T17:35:26.725Z,66.00
2023-04-03T17:37:56.389Z,66.60
2023-04-03T17:40:26.009Z,66.70
2023-04-03T17:42:56.951Z,66.80
2023-04-03T17:45:26.626Z,67.00
2023-04-03T17:47:56.362Z,67.40
2023-04-03T17:50:26.050Z,67.30
2023-04-03T17:52:55.838Z,67.00
2023-04-03T17:55:25.915Z,67.70
2023-04-03T17:57:55.524Z,67.10
2023-04-03T18:00:25.228Z,66.70
2023-04-03T18:02:56.981Z,66.40
2023-04-03T18:05:31.243Z,66.20
2023-04-03T18:08:02.050Z,65.90
2023-04-03T18:10:31.994Z,65.90
2023-04-03T18:13:01.768Z,65.60
2023-04-03T18:15:31.420Z,65.50
2023-04-03T18:18:01.131Z,65.20
2023-04-03T18:20:30.917Z,64.80
2023-04-03T18:23:01.240Z,64.10
2023-04-03T18:28:01.893Z,64.00
2023-04-03T18:30:31.511Z,64.30
2023-04-03T18:33:01.228Z,64.40
2023-04-03T18:35:31.175Z,64.00
2023-04-03T18:38:00.885Z,64.00
2023-04-03T18:40:30.549Z,63.70
2023-04-03T18:43:00.325Z,63.30
2023-04-03T18:45:30.224Z,63.10
2023-04-03T18:48:00.075Z,63.30
2023-04-03T18:50:30.819Z,63.20
2023-04-03T18:53:00.494Z,62.40
2023-04-03T18:55:30.179Z,62.20
2023-04-03T18:57:59.817Z,62.10
2023-04-03T19:00:29.893Z,62.10
2023-04-03T19:03:00.695Z,62.10
2023-04-03T19:05:30.547Z,62.20
2023-04-03T19:08:00.868Z,62.10
2023-04-03T19:10:30.607Z,62.00
2023-04-03T19:13:00.174Z,62.20
2023-04-03T19:15:30.116Z,61.70
2023-04-03T19:17:59.979Z,61.70
2023-04-03T19:20:29.795Z,61.80
2023-04-03T19:22:59.475Z,62.10
2023-04-03T19:25:29.223Z,62.60
2023-04-03T19:27:58.778Z,62.80
2023-04-03T19:30:28.477Z,62.40
2023-04-03T19:32:58.407Z,62.50
2023-04-03T19:35:28.322Z,62.20
2023-04-03T19:37:57.916Z,61.90
2023-04-03T19:40:27.869Z,61.80
2023-04-03T19:42:57.445Z,61.80
2023-04-03T19:45:28.090Z,62.00
2023-04-03T19:48:01.037Z,62.30
2023-04-03T19:50:30.699Z,62.60
2023-04-03T19:53:00.569Z,62.90
2023-04-03T19:55:33.024Z,63.00
2023-04-03T19:58:04.031Z,63.40
2023-04-03T20:00:33.796Z,63.50
2023-04-03T20:03:04.172Z,63.70
2023-04-03T20:05:34.120Z,64.30
2023-04-03T20:08:04.030Z,64.80
2023-04-03T20:10:33.728Z,64.80
2023-04-03T20:13:03.350Z,64.60
2023-04-03T20:15:41.874Z,64.80
2023-04-03T20:18:17.141Z,65.00
2023-04-03T20:20:54.219Z,65.70
2023-04-03T20:23:24.627Z,65.70
2023-04-03T20:26:08.682Z,65.10
2023-04-03T20:28:39.962Z,63.30
2023-04-03T20:42:48.218Z,60.70
2023-04-03T20:57:09.258Z,60.00
2023-04-03T21:41:36.183Z,58.90
2023-04-03T21:44:06.344Z,59.40
2023-04-03T21:46:35.982Z,59.20
2023-04-03T21:49:06.282Z,59.10
2023-04-03T21:51:37.173Z,59.10
2023-04-03T21:54:06.883Z,58.70
2023-04-03T21:56:36.553Z,58.30
2023-04-03T21:59:06.831Z,57.90
2023-04-03T22:01:36.480Z,57.40
2023-04-03T22:04:06.450Z,57.40
2023-04-03T22:06:36.051Z,57.60
2023-04-03T23:16:37.912Z,59.30
